sensor_id;sensor_type;location;lat;lon;timestamp;P1;durP1;ratioP1;P2;durP2;ratioP2
69347;SDS011;56497;45.058;41.926;2022-09-09T00:00:23;8.40;;;3.45;;
69347;SDS011;56497;45.058;41.926;2022-09-09T00:01:00;8.98;;;3.10;;
69347;SDS011;56497;45.058;41.926;2022-09-09T00:02:40;9.52;;;3.50;;
69347;SDS011;56497;45.058;41.926;2022-09-09T00:03:19;12.20;;;3.35;;
69347;SDS011;56497;45.058;41.926;2022-09-09T00:04:05;9.68;;;3.65;;
69347;SDS011;56497;45.058;41.926;2022-09-09T00:04:44;9.80;;;3.08;;
69347;SDS011;56497;45.058;41.926;2022-09-09T00:06:17;8.07;;;3.50;;
69347;SDS011;56497;45.058;41.926;2022-09-09T00:08:06;10.85;;;3.15;;
69347;SDS011;56497;45.058;41.926;2022-09-09T00:08:53;7.95;;;3.30;;
69347;SDS011;56497;45.058;41.926;2022-09-09T00:09:34;7.88;;;3.38;;
69347;SDS011;56497;45.058;41.926;2022-09-09T00:11:01;11.30;;;3.30;;
69347;SDS011;56497;45.058;41.926;2022-09-09T00:13:30;9.00;;;3.45;;
69347;SDS011;56497;45.058;41.926;2022-09-09T00:13:53;7.93;;;3.30;;
69347;SDS011;56497;45.058;41.926;2022-09-09T00:15:20;9.90;;;3.20;;
69347;SDS011;56497;45.058;41.926;2022-09-09T00:16:15;8.65;;;3.20;;
69347;SDS011;56497;45.058;41.926;2022-09-09T00:16:56;8.45;;;3.10;;
69347;SDS011;56497;45.058;41.926;2022-09-09T00:17:51;8.18;;;3.20;;
69347;SDS011;56497;45.058;41.926;2022-09-09T00:18:45;10.15;;;3.00;;
69347;SDS011;56497;45.058;41.926;2022-09-09T00:20:29;8.27;;;3.03;;
69347;SDS011;56497;45.058;41.926;2022-09-09T00:21:02;8.23;;;2.80;;
69347;SDS011;56497;45.058;41.926;2022-09-09T00:22:23;8.07;;;3.17;;
69347;SDS011;56497;45.058;41.926;2022-09-09T00:22:38;6.97;;;2.67;;
69347;SDS011;56497;45.058;41.926;2022-09-09T00:23:32;7.72;;;2.60;;
69347;SDS011;56497;45.058;41.926;2022-09-09T00:25:15;9.18;;;3.20;;
69347;SDS011;56497;45.058;41.926;2022-09-09T00:26:32;8.43;;;3.13;;
69347;SDS011;56497;45.058;41.926;2022-09-09T00:28:19;10.55;;;3.08;;
69347;SDS011;56497;45.058;41.926;2022-09-09T00:28:55;9.15;;;3.55;;
69347;SDS011;56497;45.058;41.926;2022-09-09T00:29:44;9.57;;;3.13;;
69347;SDS011;56497;45.058;41.926;2022-09-09T00:30:24;7.30;;;3.15;;
69347;SDS011;56497;45.058;41.926;2022-09-09T00:30:59;8.68;;;3.22;;
69347;SDS011;56497;45.058;41.926;2022-09-09T00:31:40;9.05;;;3.30;;
69347;SDS011;56497;45.058;41.926;2022-09-09T00:32:18;9.70;;;3.35;;
69347;SDS011;56497;45.058;41.926;2022-09-09T00:32:51;9.15;;;3.08;;
69347;SDS011;56497;45.058;41.926;2022-09-09T00:33:25;7.95;;;3.13;;
69347;SDS011;56497;45.058;41.926;2022-09-09T00:33:58;10.25;;;3.40;;
69347;SDS011;56497;45.058;41.926;2022-09-09T00:34:35;7.90;;;3.10;;
69347;SDS011;56497;45.058;41.926;2022-09-09T00:35:14;8.52;;;3.10;;
69347;SDS011;56497;45.058;41.926;2022-09-09T00:35:49;8.18;;;3.03;;
69347;SDS011;56497;45.058;41.926;2022-09-09T00:36:30;8.27;;;3.13;;
69347;SDS011;56497;45.058;41.926;2022-09-09T00:37:04;7.63;;;2.85;;
69347;SDS011;56497;45.058;41.926;2022-09-09T00:37:35;7.60;;;2.90;;
69347;SDS011;56497;45.058;41.926;2022-09-09T00:38:14;7.18;;;3.10;;
69347;SDS011;56497;45.058;41.926;2022-09-09T00:38:49;9.95;;;3.03;;
69347;SDS011;56497;45.058;41.926;2022-09-09T00:40:35;6.72;;;2.97;;
69347;SDS011;56497;45.058;41.926;2022-09-09T00:42:25;7.40;;;3.10;;
69347;SDS011;56497;45.058;41.926;2022-09-09T00:43:42;9.30;;;3.10;;
69347;SDS011;56497;45.058;41.926;2022-09-09T00:45:58;10.15;;;3.22;;
69347;SDS011;56497;45.058;41.926;2022-09-09T00:48:22;9.85;;;3.00;;
69347;SDS011;56497;45.058;41.926;2022-09-09T00:50:57;7.93;;;3.05;;
69347;SDS011;56497;45.058;41.926;2022-09-09T00:54:15;7.05;;;3.10;;
69347;SDS011;56497;45.058;41.926;2022-09-09T00:56:17;8.50;;;3.08;;
69347;SDS011;56497;45.058;41.926;2022-09-09T00:57:06;8.18;;;2.95;;
69347;SDS011;56497;45.058;41.926;2022-09-09T00:57:41;8.50;;;2.70;;
69347;SDS011;56497;45.058;41.926;2022-09-09T00:58:12;9.18;;;2.80;;
69347;SDS011;56497;45.058;41.926;2022-09-09T00:58:43;7.18;;;3.13;;
69347;SDS011;56497;45.058;41.926;2022-09-09T00:59:36;8.63;;;3.50;;
69347;SDS011;56497;45.058;41.926;2022-09-09T01:00:23;9.93;;;3.00;;
69347;SDS011;56497;45.058;41.926;2022-09-09T01:01:43;7.05;;;2.70;;
69347;SDS011;56497;45.058;41.926;2022-09-09T01:02:17;8.93;;;3.30;;
69347;SDS011;56497;45.058;41.926;2022-09-09T01:03:54;7.45;;;3.00;;
69347;SDS011;56497;45.058;41.926;2022-09-09T01:04:28;8.23;;;2.80;;
69347;SDS011;56497;45.058;41.926;2022-09-09T01:05:11;7.50;;;2.97;;
69347;SDS011;56497;45.058;41.926;2022-09-09T01:06:43;5.80;;;2.58;;
69347;SDS011;56497;45.058;41.926;2022-09-09T01:07:22;8.10;;;2.97;;
69347;SDS011;56497;45.058;41.926;2022-09-09T01:07:53;6.50;;;2.42;;
69347;SDS011;56497;45.058;41.926;2022-09-09T01:09:57;6.32;;;2.63;;
69347;SDS011;56497;45.058;41.926;2022-09-09T01:10:39;9.52;;;2.70;;
69347;SDS011;56497;45.058;41.926;2022-09-09T01:12:03;8.35;;;2.70;;
69347;SDS011;56497;45.058;41.926;2022-09-09T01:12:42;7.03;;;2.70;;
69347;SDS011;56497;45.058;41.926;2022-09-09T01:13:15;6.28;;;2.85;;
69347;SDS011;56497;45.058;41.926;2022-09-09T01:13:58;7.80;;;2.97;;
69347;SDS011;56497;45.058;41.926;2022-09-09T01:14:51;8.73;;;2.60;;
69347;SDS011;56497;45.058;41.926;2022-09-09T01:15:29;9.43;;;2.70;;
69347;SDS011;56497;45.058;41.926;2022-09-09T01:16:03;7.95;;;2.70;;
69347;SDS011;56497;45.058;41.926;2022-09-09T01:16:36;9.50;;;2.90;;
69347;SDS011;56497;45.058;41.926;2022-09-09T01:17:21;6.57;;;2.90;;
69347;SDS011;56497;45.058;41.926;2022-09-09T01:18:04;8.88;;;2.92;;
69347;SDS011;56497;45.058;41.926;2022-09-09T01:18:41;7.82;;;2.72;;
69347;SDS011;56497;45.058;41.926;2022-09-09T01:19:21;6.35;;;2.70;;
69347;SDS011;56497;45.058;41.926;2022-09-09T01:20:53;6.45;;;2.53;;
69347;SDS011;56497;45.058;41.926;2022-09-09T01:22:37;9.27;;;2.80;;
69347;SDS011;56497;45.058;41.926;2022-09-09T01:23:26;8.40;;;2.97;;
69347;SDS011;56497;45.058;41.926;2022-09-09T01:26:46;6.88;;;2.70;;
69347;SDS011;56497;45.058;41.926;2022-09-09T01:27:21;6.20;;;2.70;;
69347;SDS011;56497;45.058;41.926;2022-09-09T01:27:58;7.40;;;2.80;;
69347;SDS011;56497;45.058;41.926;2022-09-09T01:28:31;10.20;;;2.72;;
69347;SDS011;56497;45.058;41.926;2022-09-09T01:29:09;7.30;;;2.72;;
69347;SDS011;56497;45.058;41.926;2022-09-09T01:29:42;8.82;;;2.70;;
69347;SDS011;56497;45.058;41.926;2022-09-09T01:30:14;7.43;;;2.80;;
69347;SDS011;56497;45.058;41.926;2022-09-09T01:30:46;6.78;;;2.60;;
69347;SDS011;56497;45.058;41.926;2022-09-09T01:31:28;7.53;;;2.80;;
69347;SDS011;56497;45.058;41.926;2022-09-09T01:32:35;8.85;;;2.80;;
69347;SDS011;56497;45.058;41.926;2022-09-09T01:33:14;8.70;;;2.78;;
69347;SDS011;56497;45.058;41.926;2022-09-09T01:33:47;7.00;;;2.58;;
69347;SDS011;56497;45.058;41.926;2022-09-09T01:34:18;7.88;;;2.65;;
69347;SDS011;56497;45.058;41.926;2022-09-09T01:34:49;7.70;;;2.67;;
69347;SDS011;56497;45.058;41.926;2022-09-09T01:36:23;8.55;;;2.83;;
69347;SDS011;56497;45.058;41.926;2022-09-09T01:37:35;8.80;;;2.60;;
69347;SDS011;56497;45.058;41.926;2022-09-09T01:38:06;8.15;;;2.50;;
69347;SDS011;56497;45.058;41.926;2022-09-09T01:38:37;6.78;;;2.55;;
69347;SDS011;56497;45.058;41.926;2022-09-09T01:39:08;6.40;;;2.55;;
69347;SDS011;56497;45.058;41.926;2022-09-09T01:39:40;6.82;;;2.60;;
69347;SDS011;56497;45.058;41.926;2022-09-09T01:40:13;7.47;;;2.60;;
69347;SDS011;56497;45.058;41.926;2022-09-09T01:40:43;7.32;;;2.80;;
69347;SDS011;56497;45.058;41.926;2022-09-09T01:41:14;8.48;;;2.88;;
69347;SDS011;56497;45.058;41.926;2022-09-09T01:41:45;8.55;;;2.67;;
69347;SDS011;56497;45.058;41.926;2022-09-09T01:42:15;6.55;;;2.80;;
69347;SDS011;56497;45.058;41.926;2022-09-09T01:42:46;7.28;;;2.90;;
69347;SDS011;56497;45.058;41.926;2022-09-09T01:43:20;10.32;;;2.85;;
69347;SDS011;56497;45.058;41.926;2022-09-09T01:43:53;7.47;;;2.88;;
69347;SDS011;56497;45.058;41.926;2022-09-09T01:44:25;8.23;;;2.60;;
69347;SDS011;56497;45.058;41.926;2022-09-09T01:44:56;8.05;;;2.72;;
69347;SDS011;56497;45.058;41.926;2022-09-09T01:45:27;7.78;;;2.60;;
69347;SDS011;56497;45.058;41.926;2022-09-09T01:45:59;8.10;;;2.70;;
69347;SDS011;56497;45.058;41.926;2022-09-09T01:46:31;10.82;;;2.90;;
69347;SDS011;56497;45.058;41.926;2022-09-09T01:47:02;8.52;;;2.60;;
69347;SDS011;56497;45.058;41.926;2022-09-09T01:47:34;7.97;;;2.80;;
69347;SDS011;56497;45.058;41.926;2022-09-09T01:48:05;8.80;;;2.72;;
69347;SDS011;56497;45.058;41.926;2022-09-09T01:48:36;8.02;;;2.88;;
69347;SDS011;56497;45.058;41.926;2022-09-09T01:49:07;7.55;;;2.67;;
69347;SDS011;56497;45.058;41.926;2022-09-09T01:49:38;6.43;;;2.63;;
69347;SDS011;56497;45.058;41.926;2022-09-09T01:50:09;7.35;;;2.60;;
69347;SDS011;56497;45.058;41.926;2022-09-09T01:50:42;8.45;;;2.80;;
69347;SDS011;56497;45.058;41.926;2022-09-09T01:51:12;6.80;;;2.75;;
69347;SDS011;56497;45.058;41.926;2022-09-09T01:51:43;8.05;;;2.60;;
69347;SDS011;56497;45.058;41.926;2022-09-09T01:52:16;8.23;;;2.80;;
69347;SDS011;56497;45.058;41.926;2022-09-09T01:52:47;8.30;;;3.00;;
69347;SDS011;56497;45.058;41.926;2022-09-09T01:53:22;7.97;;;2.80;;
69347;SDS011;56497;45.058;41.926;2022-09-09T01:53:53;6.85;;;3.00;;
69347;SDS011;56497;45.058;41.926;2022-09-09T01:54:25;7.15;;;2.67;;
69347;SDS011;56497;45.058;41.926;2022-09-09T01:54:59;8.13;;;2.72;;
69347;SDS011;56497;45.058;41.926;2022-09-09T01:55:31;6.95;;;2.75;;
69347;SDS011;56497;45.058;41.926;2022-09-09T02:00:12;6.90;;;2.42;;
69347;SDS011;56497;45.058;41.926;2022-09-09T02:00:47;9.15;;;2.55;;
69347;SDS011;56497;45.058;41.926;2022-09-09T02:01:52;7.70;;;2.60;;
69347;SDS011;56497;45.058;41.926;2022-09-09T02:02:48;6.72;;;2.65;;
69347;SDS011;56497;45.058;41.926;2022-09-09T02:03:29;6.50;;;2.70;;
69347;SDS011;56497;45.058;41.926;2022-09-09T02:04:06;8.50;;;2.72;;
69347;SDS011;56497;45.058;41.926;2022-09-09T02:04:58;7.75;;;2.50;;
69347;SDS011;56497;45.058;41.926;2022-09-09T02:05:38;6.47;;;2.45;;
69347;SDS011;56497;45.058;41.926;2022-09-09T02:06:25;9.07;;;2.70;;
69347;SDS011;56497;45.058;41.926;2022-09-09T02:08:09;6.90;;;2.42;;
69347;SDS011;56497;45.058;41.926;2022-09-09T02:09:18;9.05;;;2.50;;
69347;SDS011;56497;45.058;41.926;2022-09-09T02:09:43;8.93;;;2.58;;
69347;SDS011;56497;45.058;41.926;2022-09-09T02:10:19;6.25;;;2.70;;
69347;SDS011;56497;45.058;41.926;2022-09-09T02:11:12;10.02;;;2.50;;
69347;SDS011;56497;45.058;41.926;2022-09-09T02:11:45;6.35;;;2.40;;
69347;SDS011;56497;45.058;41.926;2022-09-09T02:12:19;7.20;;;2.70;;
69347;SDS011;56497;45.058;41.926;2022-09-09T02:13:05;6.65;;;2.30;;
69347;SDS011;56497;45.058;41.926;2022-09-09T02:13:40;5.90;;;2.50;;
69347;SDS011;56497;45.058;41.926;2022-09-09T02:14:14;5.82;;;2.42;;
69347;SDS011;56497;45.058;41.926;2022-09-09T02:14:50;7.22;;;2.50;;
69347;SDS011;56497;45.058;41.926;2022-09-09T02:15:33;8.40;;;2.70;;
69347;SDS011;56497;45.058;41.926;2022-09-09T02:17:01;8.32;;;2.72;;
69347;SDS011;56497;45.058;41.926;2022-09-09T02:17:38;9.93;;;2.60;;
69347;SDS011;56497;45.058;41.926;2022-09-09T02:18:12;8.32;;;2.75;;
69347;SDS011;56497;45.058;41.926;2022-09-09T02:18:47;8.32;;;2.60;;
69347;SDS011;56497;45.058;41.926;2022-09-09T02:19:28;10.68;;;2.95;;
69347;SDS011;56497;45.058;41.926;2022-09-09T02:20:06;8.23;;;2.72;;
69347;SDS011;56497;45.058;41.926;2022-09-09T02:20:40;6.13;;;2.55;;
69347;SDS011;56497;45.058;41.926;2022-09-09T02:21:13;7.10;;;2.50;;
69347;SDS011;56497;45.058;41.926;2022-09-09T02:21:46;9.23;;;2.75;;
69347;SDS011;56497;45.058;41.926;2022-09-09T02:22:17;6.78;;;2.70;;
69347;SDS011;56497;45.058;41.926;2022-09-09T02:22:51;6.88;;;2.60;;
69347;SDS011;56497;45.058;41.926;2022-09-09T02:23:24;11.05;;;2.80;;
69347;SDS011;56497;45.058;41.926;2022-09-09T02:23:56;11.77;;;2.70;;
69347;SDS011;56497;45.058;41.926;2022-09-09T02:24:30;10.27;;;3.20;;
69347;SDS011;56497;45.058;41.926;2022-09-09T02:25:05;7.25;;;2.63;;
69347;SDS011;56497;45.058;41.926;2022-09-09T02:25:38;8.13;;;2.50;;
69347;SDS011;56497;45.058;41.926;2022-09-09T02:26:11;7.63;;;2.70;;
69347;SDS011;56497;45.058;41.926;2022-09-09T02:26:50;6.32;;;2.60;;
69347;SDS011;56497;45.058;41.926;2022-09-09T02:27:25;7.35;;;2.55;;
69347;SDS011;56497;45.058;41.926;2022-09-09T02:27:56;11.88;;;2.78;;
69347;SDS011;56497;45.058;41.926;2022-09-09T02:28:30;8.13;;;2.55;;
69347;SDS011;56497;45.058;41.926;2022-09-09T02:29:05;7.10;;;2.60;;
69347;SDS011;56497;45.058;41.926;2022-09-09T02:29:41;7.95;;;2.50;;
69347;SDS011;56497;45.058;41.926;2022-09-09T02:30:14;7.57;;;2.75;;
69347;SDS011;56497;45.058;41.926;2022-09-09T02:30:45;7.10;;;2.70;;
69347;SDS011;56497;45.058;41.926;2022-09-09T02:31:17;8.20;;;2.72;;
69347;SDS011;56497;45.058;41.926;2022-09-09T02:31:50;8.50;;;2.75;;
69347;SDS011;56497;45.058;41.926;2022-09-09T02:32:25;6.28;;;2.53;;
69347;SDS011;56497;45.058;41.926;2022-09-09T02:32:56;8.52;;;2.67;;
69347;SDS011;56497;45.058;41.926;2022-09-09T02:33:30;8.32;;;2.80;;
69347;SDS011;56497;45.058;41.926;2022-09-09T02:34:07;7.45;;;2.83;;
69347;SDS011;56497;45.058;41.926;2022-09-09T02:34:44;8.20;;;2.88;;
69347;SDS011;56497;45.058;41.926;2022-09-09T02:35:19;9.25;;;2.70;;
69347;SDS011;56497;45.058;41.926;2022-09-09T02:35:54;7.65;;;2.53;;
69347;SDS011;56497;45.058;41.926;2022-09-09T02:36:32;6.35;;;2.55;;
69347;SDS011;56497;45.058;41.926;2022-09-09T02:37:06;7.63;;;2.70;;
69347;SDS011;56497;45.058;41.926;2022-09-09T02:37:40;8.02;;;2.90;;
69347;SDS011;56497;45.058;41.926;2022-09-09T02:38:13;7.03;;;2.78;;
69347;SDS011;56497;45.058;41.926;2022-09-09T02:38:46;8.75;;;2.70;;
69347;SDS011;56497;45.058;41.926;2022-09-09T02:39:23;8.25;;;2.80;;
69347;SDS011;56497;45.058;41.926;2022-09-09T02:39:54;9.15;;;2.83;;
69347;SDS011;56497;45.058;41.926;2022-09-09T02:40:25;7.93;;;2.80;;
69347;SDS011;56497;45.058;41.926;2022-09-09T02:40:56;8.32;;;2.70;;
69347;SDS011;56497;45.058;41.926;2022-09-09T02:41:29;7.90;;;2.60;;
69347;SDS011;56497;45.058;41.926;2022-09-09T02:42:03;7.30;;;2.70;;
69347;SDS011;56497;45.058;41.926;2022-09-09T02:42:39;9.20;;;2.80;;
69347;SDS011;56497;45.058;41.926;2022-09-09T02:43:10;6.95;;;2.40;;
69347;SDS011;56497;45.058;41.926;2022-09-09T02:43:41;6.40;;;2.80;;
69347;SDS011;56497;45.058;41.926;2022-09-09T02:44:12;7.72;;;2.70;;
69347;SDS011;56497;45.058;41.926;2022-09-09T02:44:47;9.23;;;3.00;;
69347;SDS011;56497;45.058;41.926;2022-09-09T02:45:18;7.72;;;2.50;;
69347;SDS011;56497;45.058;41.926;2022-09-09T02:45:53;7.03;;;2.60;;
69347;SDS011;56497;45.058;41.926;2022-09-09T02:49:06;7.00;;;2.85;;
69347;SDS011;56497;45.058;41.926;2022-09-09T02:49:43;8.13;;;2.85;;
69347;SDS011;56497;45.058;41.926;2022-09-09T02:50:34;7.07;;;2.58;;
69347;SDS011;56497;45.058;41.926;2022-09-09T02:51:19;8.30;;;2.78;;
69347;SDS011;56497;45.058;41.926;2022-09-09T02:52:07;6.72;;;2.83;;
69347;SDS011;56497;45.058;41.926;2022-09-09T02:53:24;7.10;;;2.60;;
69347;SDS011;56497;45.058;41.926;2022-09-09T02:54:10;8.50;;;2.53;;
69347;SDS011;56497;45.058;41.926;2022-09-09T02:54:43;7.32;;;2.95;;
69347;SDS011;56497;45.058;41.926;2022-09-09T02:55:17;7.88;;;2.83;;
69347;SDS011;56497;45.058;41.926;2022-09-09T02:56:09;8.30;;;2.67;;
69347;SDS011;56497;45.058;41.926;2022-09-09T02:56:49;7.30;;;2.70;;
69347;SDS011;56497;45.058;41.926;2022-09-09T02:57:27;7.80;;;2.55;;
69347;SDS011;56497;45.058;41.926;2022-09-09T02:58:00;7.00;;;2.70;;
69347;SDS011;56497;45.058;41.926;2022-09-09T02:58:32;7.68;;;2.80;;
69347;SDS011;56497;45.058;41.926;2022-09-09T02:59:04;9.40;;;3.10;;
69347;SDS011;56497;45.058;41.926;2022-09-09T02:59:40;7.82;;;2.70;;
69347;SDS011;56497;45.058;41.926;2022-09-09T03:00:11;9.70;;;2.75;;
69347;SDS011;56497;45.058;41.926;2022-09-09T03:00:43;7.60;;;2.67;;
69347;SDS011;56497;45.058;41.926;2022-09-09T03:01:17;8.90;;;2.80;;
69347;SDS011;56497;45.058;41.926;2022-09-09T03:01:47;7.65;;;2.58;;
69347;SDS011;56497;45.058;41.926;2022-09-09T03:02:18;9.52;;;2.60;;
69347;SDS011;56497;45.058;41.926;2022-09-09T03:02:49;8.10;;;2.90;;
69347;SDS011;56497;45.058;41.926;2022-09-09T03:03:21;7.80;;;2.90;;
69347;SDS011;56497;45.058;41.926;2022-09-09T03:03:52;7.50;;;2.60;;
69347;SDS011;56497;45.058;41.926;2022-09-09T03:04:22;10.32;;;3.83;;
69347;SDS011;56497;45.058;41.926;2022-09-09T03:04:54;17.08;;;7.45;;
69347;SDS011;56497;45.058;41.926;2022-09-09T03:05:25;13.43;;;5.38;;
69347;SDS011;56497;45.058;41.926;2022-09-09T03:05:56;11.15;;;3.70;;
69347;SDS011;56497;45.058;41.926;2022-09-09T03:06:27;7.22;;;3.10;;
69347;SDS011;56497;45.058;41.926;2022-09-09T03:06:58;9.88;;;2.85;;
69347;SDS011;56497;45.058;41.926;2022-09-09T03:07:29;10.90;;;2.70;;
69347;SDS011;56497;45.058;41.926;2022-09-09T03:07:59;7.15;;;2.80;;
69347;SDS011;56497;45.058;41.926;2022-09-09T03:08:30;7.15;;;2.50;;
69347;SDS011;56497;45.058;41.926;2022-09-09T03:09:01;9.05;;;2.75;;
69347;SDS011;56497;45.058;41.926;2022-09-09T03:09:32;6.35;;;2.70;;
69347;SDS011;56497;45.058;41.926;2022-09-09T03:10:03;6.35;;;2.70;;
69347;SDS011;56497;45.058;41.926;2022-09-09T03:10:34;11.77;;;2.95;;
69347;SDS011;56497;45.058;41.926;2022-09-09T03:11:05;7.22;;;2.80;;
69347;SDS011;56497;45.058;41.926;2022-09-09T03:11:36;7.47;;;2.78;;
69347;SDS011;56497;45.058;41.926;2022-09-09T03:12:08;8.65;;;2.88;;
69347;SDS011;56497;45.058;41.926;2022-09-09T03:12:41;10.27;;;2.70;;
69347;SDS011;56497;45.058;41.926;2022-09-09T03:13:11;7.25;;;2.88;;
69347;SDS011;56497;45.058;41.926;2022-09-09T03:13:43;6.97;;;2.80;;
69347;SDS011;56497;45.058;41.926;2022-09-09T03:14:13;7.32;;;2.90;;
69347;SDS011;56497;45.058;41.926;2022-09-09T03:14:44;6.32;;;2.70;;
69347;SDS011;56497;45.058;41.926;2022-09-09T03:15:16;8.82;;;2.70;;
69347;SDS011;56497;45.058;41.926;2022-09-09T03:15:47;6.82;;;2.63;;
69347;SDS011;56497;45.058;41.926;2022-09-09T03:16:18;9.43;;;3.15;;
69347;SDS011;56497;45.058;41.926;2022-09-09T03:16:50;8.38;;;2.75;;
69347;SDS011;56497;45.058;41.926;2022-09-09T03:17:21;7.75;;;2.83;;
69347;SDS011;56497;45.058;41.926;2022-09-09T03:17:51;8.13;;;3.00;;
69347;SDS011;56497;45.058;41.926;2022-09-09T03:18:22;6.90;;;2.90;;
69347;SDS011;56497;45.058;41.926;2022-09-09T03:18:53;8.15;;;2.80;;
69347;SDS011;56497;45.058;41.926;2022-09-09T03:19:23;8.57;;;2.97;;
69347;SDS011;56497;45.058;41.926;2022-09-09T03:19:54;7.10;;;2.83;;
69347;SDS011;56497;45.058;41.926;2022-09-09T03:20:29;8.25;;;2.75;;
69347;SDS011;56497;45.058;41.926;2022-09-09T03:21:00;10.63;;;3.10;;
69347;SDS011;56497;45.058;41.926;2022-09-09T03:21:31;9.07;;;2.90;;
69347;SDS011;56497;45.058;41.926;2022-09-09T03:22:02;7.53;;;2.83;;
69347;SDS011;56497;45.058;41.926;2022-09-09T03:22:34;7.97;;;3.00;;
69347;SDS011;56497;45.058;41.926;2022-09-09T03:23:05;8.10;;;2.90;;
69347;SDS011;56497;45.058;41.926;2022-09-09T03:23:35;11.07;;;3.00;;
69347;SDS011;56497;45.058;41.926;2022-09-09T03:24:06;6.90;;;2.92;;
69347;SDS011;56497;45.058;41.926;2022-09-09T03:24:37;7.38;;;2.90;;
69347;SDS011;56497;45.058;41.926;2022-09-09T03:25:07;8.93;;;2.90;;
69347;SDS011;56497;45.058;41.926;2022-09-09T03:25:38;7.32;;;2.88;;
69347;SDS011;56497;45.058;41.926;2022-09-09T03:26:09;8.27;;;2.70;;
69347;SDS011;56497;45.058;41.926;2022-09-09T03:26:40;7.50;;;2.70;;
69347;SDS011;56497;45.058;41.926;2022-09-09T03:27:14;7.57;;;2.90;;
69347;SDS011;56497;45.058;41.926;2022-09-09T03:27:46;6.20;;;2.70;;
69347;SDS011;56497;45.058;41.926;2022-09-09T03:28:16;8.90;;;2.80;;
69347;SDS011;56497;45.058;41.926;2022-09-09T03:28:47;8.75;;;2.75;;
69347;SDS011;56497;45.058;41.926;2022-09-09T03:29:18;7.65;;;2.83;;
69347;SDS011;56497;45.058;41.926;2022-09-09T03:29:49;8.57;;;2.97;;
69347;SDS011;56497;45.058;41.926;2022-09-09T03:30:22;7.05;;;2.80;;
69347;SDS011;56497;45.058;41.926;2022-09-09T03:30:57;8.20;;;3.05;;
69347;SDS011;56497;45.058;41.926;2022-09-09T03:31:29;9.18;;;2.60;;
69347;SDS011;56497;45.058;41.926;2022-09-09T03:32:00;9.32;;;2.70;;
69347;SDS011;56497;45.058;41.926;2022-09-09T03:32:30;7.25;;;2.70;;
69347;SDS011;56497;45.058;41.926;2022-09-09T03:33:01;8.18;;;2.70;;
69347;SDS011;56497;45.058;41.926;2022-09-09T03:33:32;9.30;;;3.08;;
69347;SDS011;56497;45.058;41.926;2022-09-09T03:34:04;8.07;;;3.28;;
69347;SDS011;56497;45.058;41.926;2022-09-09T03:34:35;10.13;;;3.50;;
69347;SDS011;56497;45.058;41.926;2022-09-09T03:35:09;8.77;;;4.35;;
69347;SDS011;56497;45.058;41.926;2022-09-09T03:35:44;9.68;;;5.10;;
69347;SDS011;56497;45.058;41.926;2022-09-09T03:36:18;11.30;;;4.97;;
69347;SDS011;56497;45.058;41.926;2022-09-09T03:36:49;9.98;;;4.70;;
69347;SDS011;56497;45.058;41.926;2022-09-09T03:37:20;13.40;;;5.43;;
69347;SDS011;56497;45.058;41.926;2022-09-09T03:37:50;11.38;;;4.60;;
69347;SDS011;56497;45.058;41.926;2022-09-09T03:38:21;11.45;;;5.03;;
69347;SDS011;56497;45.058;41.926;2022-09-09T03:38:52;9.63;;;5.20;;
69347;SDS011;56497;45.058;41.926;2022-09-09T03:39:24;11.95;;;4.60;;
69347;SDS011;56497;45.058;41.926;2022-09-09T03:39:55;10.48;;;4.50;;
69347;SDS011;56497;45.058;41.926;2022-09-09T03:40:26;9.00;;;4.25;;
69347;SDS011;56497;45.058;41.926;2022-09-09T03:40:56;11.77;;;3.95;;
69347;SDS011;56497;45.058;41.926;2022-09-09T03:41:27;10.52;;;4.10;;
69347;SDS011;56497;45.058;41.926;2022-09-09T03:41:58;8.40;;;4.00;;
69347;SDS011;56497;45.058;41.926;2022-09-09T03:42:29;8.63;;;3.60;;
69347;SDS011;56497;45.058;41.926;2022-09-09T03:43:00;10.27;;;3.70;;
69347;SDS011;56497;45.058;41.926;2022-09-09T03:43:31;10.15;;;3.58;;
69347;SDS011;56497;45.058;41.926;2022-09-09T03:44:02;11.80;;;3.40;;
69347;SDS011;56497;45.058;41.926;2022-09-09T03:44:33;10.15;;;3.63;;
69347;SDS011;56497;45.058;41.926;2022-09-09T03:45:04;10.80;;;3.65;;
69347;SDS011;56497;45.058;41.926;2022-09-09T03:45:36;8.88;;;3.53;;
69347;SDS011;56497;45.058;41.926;2022-09-09T03:46:07;11.20;;;3.40;;
69347;SDS011;56497;45.058;41.926;2022-09-09T03:46:38;9.55;;;3.25;;
69347;SDS011;56497;45.058;41.926;2022-09-09T03:47:08;11.90;;;3.35;;
69347;SDS011;56497;45.058;41.926;2022-09-09T03:47:39;8.65;;;3.25;;
69347;SDS011;56497;45.058;41.926;2022-09-09T03:48:10;10.88;;;3.13;;
69347;SDS011;56497;45.058;41.926;2022-09-09T03:48:41;10.45;;;3.20;;
69347;SDS011;56497;45.058;41.926;2022-09-09T03:49:12;9.43;;;3.25;;
69347;SDS011;56497;45.058;41.926;2022-09-09T03:49:43;9.45;;;3.30;;
69347;SDS011;56497;45.058;41.926;2022-09-09T03:50:13;8.52;;;3.28;;
69347;SDS011;56497;45.058;41.926;2022-09-09T03:50:49;10.00;;;3.30;;
69347;SDS011;56497;45.058;41.926;2022-09-09T03:51:21;7.53;;;3.10;;
69347;SDS011;56497;45.058;41.926;2022-09-09T03:51:52;9.82;;;3.60;;
69347;SDS011;56497;45.058;41.926;2022-09-09T03:52:22;9.05;;;3.20;;
69347;SDS011;56497;45.058;41.926;2022-09-09T03:52:55;8.93;;;3.30;;
69347;SDS011;56497;45.058;41.926;2022-09-09T03:53:25;10.20;;;3.40;;
69347;SDS011;56497;45.058;41.926;2022-09-09T03:53:56;10.90;;;3.45;;
69347;SDS011;56497;45.058;41.926;2022-09-09T03:54:28;13.10;;;3.60;;
69347;SDS011;56497;45.058;41.926;2022-09-09T03:54:58;12.25;;;3.53;;
69347;SDS011;56497;45.058;41.926;2022-09-09T03:55:29;9.52;;;3.55;;
69347;SDS011;56497;45.058;41.926;2022-09-09T03:56:00;12.90;;;3.80;;
69347;SDS011;56497;45.058;41.926;2022-09-09T03:56:30;9.50;;;3.72;;
69347;SDS011;56497;45.058;41.926;2022-09-09T03:57:02;9.57;;;3.72;;
69347;SDS011;56497;45.058;41.926;2022-09-09T03:57:33;7.97;;;4.00;;
69347;SDS011;56497;45.058;41.926;2022-09-09T03:58:05;8.65;;;3.72;;
69347;SDS011;56497;45.058;41.926;2022-09-09T03:58:38;9.63;;;3.88;;
69347;SDS011;56497;45.058;41.926;2022-09-09T03:59:09;11.43;;;4.10;;
69347;SDS011;56497;45.058;41.926;2022-09-09T03:59:40;10.32;;;4.00;;
69347;SDS011;56497;45.058;41.926;2022-09-09T04:00:10;10.23;;;4.10;;
69347;SDS011;56497;45.058;41.926;2022-09-09T04:00:41;11.82;;;4.43;;
69347;SDS011;56497;45.058;41.926;2022-09-09T04:01:13;14.63;;;4.68;;
69347;SDS011;56497;45.058;41.926;2022-09-09T04:01:44;10.85;;;4.40;;
69347;SDS011;56497;45.058;41.926;2022-09-09T04:02:15;11.98;;;4.95;;
69347;SDS011;56497;45.058;41.926;2022-09-09T04:02:46;11.73;;;4.40;;
69347;SDS011;56497;45.058;41.926;2022-09-09T04:03:17;11.95;;;4.63;;
69347;SDS011;56497;45.058;41.926;2022-09-09T04:03:47;10.98;;;4.55;;
69347;SDS011;56497;45.058;41.926;2022-09-09T04:04:18;10.75;;;4.85;;
69347;SDS011;56497;45.058;41.926;2022-09-09T04:04:50;9.52;;;4.88;;
69347;SDS011;56497;45.058;41.926;2022-09-09T04:05:20;9.30;;;4.80;;
69347;SDS011;56497;45.058;41.926;2022-09-09T04:05:51;11.02;;;5.00;;
69347;SDS011;56497;45.058;41.926;2022-09-09T04:06:22;11.93;;;5.00;;
69347;SDS011;56497;45.058;41.926;2022-09-09T04:06:53;10.70;;;5.05;;
69347;SDS011;56497;45.058;41.926;2022-09-09T04:07:23;10.13;;;4.60;;
69347;SDS011;56497;45.058;41.926;2022-09-09T04:07:55;10.32;;;5.22;;
69347;SDS011;56497;45.058;41.926;2022-09-09T04:08:25;10.32;;;5.20;;
69347;SDS011;56497;45.058;41.926;2022-09-09T04:08:56;11.20;;;4.95;;
69347;SDS011;56497;45.058;41.926;2022-09-09T04:09:27;10.32;;;5.07;;